sensor_id;sensor_type;location;lat;lon;timestamp;pressure;altitude;pressure_sealevel;temperature;humidity
57562;BME280;43397;51.530;5.974;2023-01-31T00:01:34;102061.78;;;7.62;76.14
57562;BME280;43397;51.530;5.974;2023-01-31T00:04:01;102064.75;;;7.74;75.73
57562;BME280;43397;51.530;5.974;2023-01-31T00:06:29;102067.66;;;7.47;75.51
57562;BME280;43397;51.530;5.974;2023-01-31T00:08:57;102071.38;;;7.20;77.59
57562;BME280;43397;51.530;5.974;2023-01-31T00:11:26;102074.97;;;7.59;75.61
57562;BME280;43397;51.530;5.974;2023-01-31T00:13:52;102072.94;;;7.49;76.55
57562;BME280;43397;51.530;5.974;2023-01-31T00:16:20;102069.72;;;7.60;75.71
57562;BME280;43397;51.530;5.974;2023-01-31T00:18:45;102062.81;;;8.07;74.37
57562;BME280;43397;51.530;5.974;2023-01-31T00:21:13;102071.47;;;7.60;75.16
57562;BME280;43397;51.530;5.974;2023-01-31T00:23:41;102064.22;;;7.51;75.18
57562;BME280;43397;51.530;5.974;2023-01-31T00:26:12;102072.38;;;7.62;74.87
57562;BME280;43397;51.530;5.974;2023-01-31T00:28:40;102068.09;;;7.67;74.38
57562;BME280;43397;51.530;5.974;2023-01-31T00:31:06;102073.16;;;7.56;73.84
57562;BME280;43397;51.530;5.974;2023-01-31T00:33:32;102078.13;;;7.43;74.92
57562;BME280;43397;51.530;5.974;2023-01-31T00:35:58;102080.41;;;7.65;74.14
57562;BME280;43397;51.530;5.974;2023-01-31T00:38:26;102075.03;;;7.62;73.34
57562;BME280;43397;51.530;5.974;2023-01-31T00:40:52;102082.38;;;7.37;74.75
57562;BME280;43397;51.530;5.974;2023-01-31T00:43:18;102088.91;;;7.52;74.83
57562;BME280;43397;51.530;5.974;2023-01-31T00:45:46;102077.13;;;7.77;73.26
57562;BME280;43397;51.530;5.974;2023-01-31T00:48:12;102075.28;;;7.73;72.83
57562;BME280;43397;51.530;5.974;2023-01-31T00:50:38;102076.56;;;7.16;75.78
57562;BME280;43397;51.530;5.974;2023-01-31T00:53:03;102082.72;;;7.15;76.79
57562;BME280;43397;51.530;5.974;2023-01-31T00:55:29;102084.38;;;7.11;77.50
57562;BME280;43397;51.530;5.974;2023-01-31T00:57:55;102082.97;;;7.26;75.86
57562;BME280;43397;51.530;5.974;2023-01-31T01:00:21;102079.56;;;7.31;76.17
57562;BME280;43397;51.530;5.974;2023-01-31T01:02:48;102065.13;;;7.53;74.66
57562;BME280;43397;51.530;5.974;2023-01-31T01:05:14;102074.88;;;7.94;73.63
57562;BME280;43397;51.530;5.974;2023-01-31T01:07:40;102078.50;;;7.97;71.83
57562;BME280;43397;51.530;5.974;2023-01-31T01:10:06;102076.97;;;7.69;73.10
57562;BME280;43397;51.530;5.974;2023-01-31T01:12:32;102074.88;;;7.54;73.97
57562;BME280;43397;51.530;5.974;2023-01-31T01:14:58;102077.97;;;7.74;74.02
57562;BME280;43397;51.530;5.974;2023-01-31T01:17:24;102067.38;;;7.36;75.77
57562;BME280;43397;51.530;5.974;2023-01-31T01:19:51;102062.91;;;7.34;76.04
57562;BME280;43397;51.530;5.974;2023-01-31T01:22:16;102062.75;;;7.28;76.87
57562;BME280;43397;51.530;5.974;2023-01-31T01:24:42;102053.28;;;7.37;77.26
57562;BME280;43397;51.530;5.974;2023-01-31T01:27:09;102041.66;;;7.31;76.51
57562;BME280;43397;51.530;5.974;2023-01-31T01:29:35;102046.53;;;7.50;75.61
57562;BME280;43397;51.530;5.974;2023-01-31T01:32:02;102054.06;;;7.70;75.01
57562;BME280;43397;51.530;5.974;2023-01-31T01:34:27;102049.28;;;7.55;74.78
57562;BME280;43397;51.530;5.974;2023-01-31T01:36:54;102045.44;;;7.40;75.77
57562;BME280;43397;51.530;5.974;2023-01-31T01:39:20;102043.53;;;7.35;75.28
57562;BME280;43397;51.530;5.974;2023-01-31T01:41:46;102043.63;;;7.39;75.20
57562;BME280;43397;51.530;5.974;2023-01-31T01:44:45;102032.44;;;7.50;74.41
57562;BME280;43397;51.530;5.974;2023-01-31T01:47:15;102026.66;;;7.30;75.13
57562;BME280;43397;51.530;5.974;2023-01-31T01:49:45;102028.69;;;7.41;74.07
57562;BME280;43397;51.530;5.974;2023-01-31T01:52:14;102029.88;;;7.16;74.41
57562;BME280;43397;51.530;5.974;2023-01-31T01:54:44;102036.59;;;7.40;74.45
57562;BME280;43397;51.530;5.974;2023-01-31T01:57:14;102035.91;;;7.47;74.25
57562;BME280;43397;51.530;5.974;2023-01-31T01:59:44;102030.72;;;7.53;73.69
57562;BME280;43397;51.530;5.974;2023-01-31T02:02:11;102043.13;;;7.18;74.81
57562;BME280;43397;51.530;5.974;2023-01-31T02:04:39;102041.50;;;7.61;74.06
57562;BME280;43397;51.530;5.974;2023-01-31T02:07:07;102041.31;;;7.53;73.49
57562;BME280;43397;51.530;5.974;2023-01-31T02:09:40;102033.69;;;7.29;74.18
57562;BME280;43397;51.530;5.974;2023-01-31T02:12:08;102036.06;;;7.55;72.71
57562;BME280;43397;51.530;5.974;2023-01-31T02:14:34;102036.06;;;7.55;73.16
57562;BME280;43397;51.530;5.974;2023-01-31T02:17:01;102039.00;;;7.67;71.99
57562;BME280;43397;51.530;5.974;2023-01-31T02:19:34;102036.84;;;7.51;73.85
57562;BME280;43397;51.530;5.974;2023-01-31T02:22:11;102041.75;;;7.34;74.69
57562;BME280;43397;51.530;5.974;2023-01-31T02:25:03;102048.50;;;7.21;76.17
57562;BME280;43397;51.530;5.974;2023-01-31T02:27:57;102060.09;;;7.64;74.83
57562;BME280;43397;51.530;5.974;2023-01-31T02:30:58;102067.06;;;7.60;74.56
57562;BME280;43397;51.530;5.974;2023-01-31T02:33:35;102058.91;;;7.89;72.67
57562;BME280;43397;51.530;5.974;2023-01-31T02:36:14;102057.22;;;7.94;72.59
57562;BME280;43397;51.530;5.974;2023-01-31T02:38:54;102066.41;;;7.69;73.01
57562;BME280;43397;51.530;5.974;2023-01-31T02:41:26;102069.34;;;7.83;72.09
57562;BME280;43397;51.530;5.974;2023-01-31T02:43:57;102067.09;;;7.62;73.18
57562;BME280;43397;51.530;5.974;2023-01-31T02:46:33;102061.88;;;7.65;74.39
57562;BME280;43397;51.530;5.974;2023-01-31T02:49:07;102058.63;;;7.77;73.80
57562;BME280;43397;51.530;5.974;2023-01-31T02:51:40;102054.94;;;7.69;73.90
57562;BME280;43397;51.530;5.974;2023-01-31T02:54:11;102046.84;;;7.62;75.41
57562;BME280;43397;51.530;5.974;2023-01-31T02:56:40;102046.75;;;7.59;77.18
57562;BME280;43397;51.530;5.974;2023-01-31T02:59:12;102049.41;;;7.59;77.13
57562;BME280;43397;51.530;5.974;2023-01-31T03:01:41;102044.47;;;7.37;78.91
57562;BME280;43397;51.530;5.974;2023-01-31T03:04:10;102037.19;;;7.65;76.96
57562;BME280;43397;51.530;5.974;2023-01-31T03:06:58;102032.72;;;8.03;76.40
57562;BME280;43397;51.530;5.974;2023-01-31T03:09:31;102027.13;;;7.89;77.04
57562;BME280;43397;51.530;5.974;2023-01-31T03:12:06;102026.81;;;8.16;76.39
57562;BME280;43397;51.530;5.974;2023-01-31T03:14:41;102033.47;;;7.56;78.44
57562;BME280;43397;51.530;5.974;2023-01-31T03:17:13;102029.28;;;8.07;76.63
57562;BME280;43397;51.530;5.974;2023-01-31T03:19:47;102031.78;;;7.99;77.17
57562;BME280;43397;51.530;5.974;2023-01-31T03:22:22;102018.28;;;8.30;76.31
57562;BME280;43397;51.530;5.974;2023-01-31T03:24:50;102016.25;;;8.18;76.61
57562;BME280;43397;51.530;5.974;2023-01-31T03:27:17;102008.31;;;8.18;77.60
57562;BME280;43397;51.530;5.974;2023-01-31T03:29:43;102014.50;;;8.18;77.73
57562;BME280;43397;51.530;5.974;2023-01-31T03:32:15;102015.63;;;8.30;77.36
57562;BME280;43397;51.530;5.974;2023-01-31T03:34:45;102005.47;;;8.09;78.18
57562;BME280;43397;51.530;5.974;2023-01-31T03:37:15;102000.75;;;7.94;78.98
57562;BME280;43397;51.530;5.974;2023-01-31T03:39:52;101998.09;;;7.51;81.96
57562;BME280;43397;51.530;5.974;2023-01-31T03:42:23;101997.41;;;8.02;80.01
57562;BME280;43397;51.530;5.974;2023-01-31T03:44:54;101991.75;;;8.28;79.35
57562;BME280;43397;51.530;5.974;2023-01-31T03:47:23;101988.44;;;8.38;78.96
57562;BME280;43397;51.530;5.974;2023-01-31T03:49:53;101997.94;;;8.29;78.22
57562;BME280;43397;51.530;5.974;2023-01-31T03:52:22;101989.84;;;8.21;80.30
57562;BME280;43397;51.530;5.974;2023-01-31T03:54:54;101990.63;;;8.61;78.53
57562;BME280;43397;51.530;5.974;2023-01-31T03:57:24;101988.88;;;8.61;78.19
57562;BME280;43397;51.530;5.974;2023-01-31T03:59:56;101989.91;;;8.70;78.57
57562;BME280;43397;51.530;5.974;2023-01-31T04:02:27;101981.88;;;8.65;78.17
57562;BME280;43397;51.530;5.974;2023-01-31T04:05:01;101975.47;;;9.04;77.17
57562;BME280;43397;51.530;5.974;2023-01-31T04:07:28;101986.38;;;8.69;79.04
57562;BME280;43397;51.530;5.974;2023-01-31T04:09:54;101985.34;;;8.61;79.06
57562;BME280;43397;51.530;5.974;2023-01-31T04:12:20;101975.09;;;8.82;77.85
57562;BME280;43397;51.530;5.974;2023-01-31T04:14:45;101961.78;;;8.78;77.97
57562;BME280;43397;51.530;5.974;2023-01-31T04:17:11;101970.53;;;8.74;79.19
57562;BME280;43397;51.530;5.974;2023-01-31T04:19:37;101966.09;;;8.71;78.98
57562;BME280;43397;51.530;5.974;2023-01-31T04:22:04;101956.66;;;8.89;78.12
57562;BME280;43397;51.530;5.974;2023-01-31T04:24:29;101955.81;;;8.93;78.24
57562;BME280;43397;51.530;5.974;2023-01-31T04:26:55;101958.69;;;8.52;79.28
57562;BME280;43397;51.530;5.974;2023-01-31T04:29:21;101956.41;;;8.73;78.57
57562;BME280;43397;51.530;5.974;2023-01-31T04:31:46;101955.25;;;8.59;80.22
57562;BME280;43397;51.530;5.974;2023-01-31T04:34:12;101954.03;;;8.92;79.17
57562;BME280;43397;51.530;5.974;2023-01-31T04:36:38;101959.31;;;8.89;79.44
57562;BME280;43397;51.530;5.974;2023-01-31T04:39:05;101964.16;;;8.62;80.54
57562;BME280;43397;51.530;5.974;2023-01-31T04:41:30;101953.94;;;8.85;80.07
57562;BME280;43397;51.530;5.974;2023-01-31T04:43:56;101952.09;;;8.81;80.06
57562;BME280;43397;51.530;5.974;2023-01-31T04:46:22;101953.38;;;8.52;80.81
57562;BME280;43397;51.530;5.974;2023-01-31T04:48:47;101952.56;;;8.57;80.79
57562;BME280;43397;51.530;5.974;2023-01-31T04:51:13;101958.38;;;8.88;79.81
57562;BME280;43397;51.530;5.974;2023-01-31T04:53:39;101957.53;;;8.39;80.96
57562;BME280;43397;51.530;5.974;2023-01-31T04:56:06;101952.38;;;8.98;79.74
57562;BME280;43397;51.530;5.974;2023-01-31T04:58:32;101951.69;;;8.57;80.37
57562;BME280;43397;51.530;5.974;2023-01-31T05:00:57;101945.28;;;8.44;80.88
57562;BME280;43397;51.530;5.974;2023-01-31T05:03:23;101949.16;;;8.63;79.65
57562;BME280;43397;51.530;5.974;2023-01-31T05:05:49;101953.50;;;8.59;79.98
57562;BME280;43397;51.530;5.974;2023-01-31T05:08:16;101947.75;;;8.36;80.79
57562;BME280;43397;51.530;5.974;2023-01-31T05:10:42;101948.56;;;8.34;81.09
57562;BME280;43397;51.530;5.974;2023-01-31T05:13:09;101943.41;;;8.40;81.19
57562;BME280;43397;51.530;5.974;2023-01-31T05:15:35;101945.34;;;8.47;80.45
57562;BME280;43397;51.530;5.974;2023-01-31T05:18:01;101934.94;;;8.59;79.36
57562;BME280;43397;51.530;5.974;2023-01-31T05:20:27;101934.09;;;8.60;80.46
57562;BME280;43397;51.530;5.974;2023-01-31T05:22:52;101931.06;;;8.40;80.13
57562;BME280;43397;51.530;5.974;2023-01-31T05:25:18;101932.06;;;8.46;80.08
57562;BME280;43397;51.530;5.974;2023-01-31T05:27:44;101933.72;;;7.95;80.77
57562;BME280;43397;51.530;5.974;2023-01-31T05:30:11;101929.75;;;8.18;80.62
57562;BME280;43397;51.530;5.974;2023-01-31T05:32:37;101916.94;;;7.93;81.44
57562;BME280;43397;51.530;5.974;2023-01-31T05:35:03;101914.88;;;7.79;82.12
57562;BME280;43397;51.530;5.974;2023-01-31T05:37:30;101908.22;;;8.00;82.08
57562;BME280;43397;51.530;5.974;2023-01-31T05:39:56;101914.66;;;8.13;81.39
57562;BME280;43397;51.530;5.974;2023-01-31T05:42:22;101913.94;;;7.76;82.15
57562;BME280;43397;51.530;5.974;2023-01-31T05:44:47;101913.59;;;8.04;81.32
57562;BME280;43397;51.530;5.974;2023-01-31T05:47:14;101913.16;;;7.81;82.33
57562;BME280;43397;51.530;5.974;2023-01-31T05:49:40;101913.91;;;8.20;80.98
57562;BME280;43397;51.530;5.974;2023-01-31T05:52:06;101918.09;;;8.09;81.28
57562;BME280;43397;51.530;5.974;2023-01-31T05:54:31;101910.13;;;8.07;82.30
57562;BME280;43397;51.530;5.974;2023-01-31T05:56:57;101908.84;;;8.32;81.44
57562;BME280;43397;51.530;5.974;2023-01-31T05:59:22;101897.31;;;8.32;81.12
57562;BME280;43397;51.530;5.974;2023-01-31T06:01:48;101896.91;;;8.57;80.17
57562;BME280;43397;51.530;5.974;2023-01-31T06:04:15;101897.00;;;8.60;79.69
57562;BME280;43397;51.530;5.974;2023-01-31T06:06:41;101893.13;;;8.41;80.66
57562;BME280;43397;51.530;5.974;2023-01-31T06:09:07;101892.72;;;8.20;82.13
57562;BME280;43397;51.530;5.974;2023-01-31T06:11:33;101887.13;;;8.52;80.43
57562;BME280;43397;51.530;5.974;2023-01-31T06:13:58;101887.94;;;8.48;80.50
57562;BME280;43397;51.530;5.974;2023-01-31T06:16:24;101887.97;;;8.51;79.91
57562;BME280;43397;51.530;5.974;2023-01-31T06:18:50;101885.66;;;8.69;79.30
57562;BME280;43397;51.530;5.974;2023-01-31T06:21:17;101904.69;;;8.47;79.49
57562;BME280;43397;51.530;5.974;2023-01-31T06:23:42;101897.63;;;8.46;80.06
57562;BME280;43397;51.530;5.974;2023-01-31T06:26:08;101904.94;;;8.62;79.72
57562;BME280;43397;51.530;5.974;2023-01-31T06:28:35;101897.47;;;8.39;80.21
57562;BME280;43397;51.530;5.974;2023-01-31T06:31:05;101910.72;;;8.39;80.35
57562;BME280;43397;51.530;5.974;2023-01-31T06:33:30;101909.16;;;8.49;79.91
57562;BME280;43397;51.530;5.974;2023-01-31T06:35:58;101906.97;;;8.27;80.38
57562;BME280;43397;51.530;5.974;2023-01-31T06:38:25;101906.31;;;8.40;80.12
57562;BME280;43397;51.530;5.974;2023-01-31T06:40:51;101900.03;;;8.35;80.47
57562;BME280;43397;51.530;5.974;2023-01-31T06:43:17;101904.34;;;8.28;79.95
57562;BME280;43397;51.530;5.974;2023-01-31T06:45:43;101906.50;;;8.48;79.92
57562;BME280;43397;51.530;5.974;2023-01-31T06:48:09;101913.72;;;8.56;79.84
57562;BME280;43397;51.530;5.974;2023-01-31T06:50:35;101899.78;;;8.70;79.03
57562;BME280;43397;51.530;5.974;2023-01-31T06:53:00;101904.59;;;8.94;77.58
57562;BME280;43397;51.530;5.974;2023-01-31T06:55:27;101902.47;;;8.73;78.55
57562;BME280;43397;51.530;5.974;2023-01-31T06:57:53;101896.28;;;8.72;78.15
57562;BME280;43397;51.530;5.974;2023-01-31T07:00:19;101886.63;;;8.76;78.84
57562;BME280;43397;51.530;5.974;2023-01-31T07:02:46;101883.81;;;8.65;78.99
57562;BME280;43397;51.530;5.974;2023-01-31T07:05:12;101882.00;;;8.62;79.50
57562;BME280;43397;51.530;5.974;2023-01-31T07:07:38;101876.09;;;8.80;78.52
57562;BME280;43397;51.530;5.974;2023-01-31T07:10:04;101871.97;;;8.44;79.36
57562;BME280;43397;51.530;5.974;2023-01-31T07:12:31;101881.84;;;8.52;79.34
57562;BME280;43397;51.530;5.974;2023-01-31T07:14:57;101871.47;;;8.69;78.97
57562;BME280;43397;51.530;5.974;2023-01-31T07:17:23;101873.38;;;8.77;78.41
57562;BME280;43397;51.530;5.974;2023-01-31T07:19:48;101880.00;;;8.49;79.56
57562;BME280;43397;51.530;5.974;2023-01-31T07:22:14;101874.13;;;8.18;81.11
57562;BME280;43397;51.530;5.974;2023-01-31T07:24:40;101879.34;;;8.61;79.68
57562;BME280;43397;51.530;5.974;2023-01-31T07:27:05;101878.78;;;8.82;79.04
57562;BME280;43397;51.530;5.974;2023-01-31T07:29:32;101860.72;;;8.56;80.15
57562;BME280;43397;51.530;5.974;2023-01-31T07:31:58;101882.00;;;8.62;80.37
57562;BME280;43397;51.530;5.974;2023-01-31T07:34:24;101871.41;;;8.62;79.56
57562;BME280;43397;51.530;5.974;2023-01-31T07:36:50;101859.44;;;8.34;80.63
57562;BME280;43397;51.530;5.974;2023-01-31T07:39:16;101878.56;;;8.68;81.11
57562;BME280;43397;51.530;5.974;2023-01-31T07:41:41;101862.72;;;8.71;80.03
57562;BME280;43397;51.530;5.974;2023-01-31T07:44:07;101851.47;;;8.36;82.41
57562;BME280;43397;51.530;5.974;2023-01-31T07:46:35;101859.25;;;8.23;83.49
57562;BME280;43397;51.530;5.974;2023-01-31T07:49:01;101872.25;;;8.11;83.48
57562;BME280;43397;51.530;5.974;2023-01-31T07:51:28;101854.69;;;8.16;84.61
57562;BME280;43397;51.530;5.974;2023-01-31T07:53:55;101847.41;;;8.04;84.64
57562;BME280;43397;51.530;5.974;2023-01-31T07:56:20;101866.91;;;8.57;83.17
57562;BME280;43397;51.530;5.974;2023-01-31T07:58:47;101858.06;;;8.56;82.74
57562;BME280;43397;51.530;5.974;2023-01-31T08:01:15;101849.50;;;8.74;81.73
57562;BME280;43397;51.530;5.974;2023-01-31T08:03:42;101850.53;;;8.85;82.62
57562;BME280;43397;51.530;5.974;2023-01-31T08:06:10;101849.03;;;9.03;81.47
57562;BME280;43397;51.530;5.974;2023-01-31T08:08:37;101836.06;;;8.12;84.20
57562;BME280;43397;51.530;5.974;2023-01-31T08:11:04;101840.25;;;8.48;83.21
57562;BME280;43397;51.530;5.974;2023-01-31T08:13:30;101829.41;;;8.89;81.04
57562;BME280;43397;51.530;5.974;2023-01-31T08:15:57;101830.69;;;8.56;82.74
57562;BME280;43397;51.530;5.974;2023-01-31T08:18:22;101821.59;;;8.99;81.48
57562;BME280;43397;51.530;5.974;2023-01-31T08:20:49;101817.81;;;8.83;82.41
57562;BME280;43397;51.530;5.974;2023-01-31T08:23:15;101817.56;;;8.67;82.61
57562;BME280;43397;51.530;5.974;2023-01-31T08:25:41;101822.53;;;9.04;82.03
57562;BME280;43397;51.530;5.974;2023-01-31T08:28:07;101806.22;;;9.42;81.07
57562;BME280;43397;51.530;5.974;2023-01-31T08:30:33;101803.28;;;9.21;80.80
57562;BME280;43397;51.530;5.974;2023-01-31T08:32:58;101795.75;;;8.86;82.24
57562;BME280;43397;51.530;5.974;2023-01-31T08:35:25;101789.09;;;8.52;83.14
57562;BME280;43397;51.530;5.974;2023-01-31T08:37:52;101803.69;;;8.83;82.99
57562;BME280;43397;51.530;5.974;2023-01-31T08:40:18;101812.97;;;9.16;82.47
57562;BME280;43397;51.530;5.974;2023-01-31T08:42:52;101803.00;;;8.98;82.34
57562;BME280;43397;51.530;5.974;2023-01-31T08:45:18;101809.56;;;9.26;80.73
57562;BME280;43397;51.530;5.974;2023-01-31T08:47:43;101807.13;;;9.43;81.02
57562;BME280;43397;51.530;5.974;2023-01-31T08:50:10;101796.81;;;9.72;79.98
57562;BME280;43397;51.530;5.974;2023-01-31T08:52:36;101799.25;;;9.54;80.59
57562;BME280;43397;51.530;5.974;2023-01-31T08:55:04;101801.97;;;9.57;81.19
57562;BME280;43397;51.530;5.974;2023-01-31T08:57:30;101792.28;;;9.60;80.73
57562;BME280;43397;51.530;5.974;2023-01-31T08:59:56;101797.78;;;9.80;79.45
57562;BME280;43397;51.530;5.974;2023-01-31T09:02:21;101784.28;;;9.59;80.29
57562;BME280;43397;51.530;5.974;2023-01-31T09:04:47;101789.78;;;9.77;79.66
57562;BME280;43397;51.530;5.974;2023-01-31T09:07:13;101790.25;;;10.28;78.13
57562;BME280;43397;51.530;5.974;2023-01-31T09:09:38;101778.72;;;10.24;77.76
57562;BME280;43397;51.530;5.974;2023-01-31T09:12:06;101770.28;;;9.72;79.10
57562;BME280;43397;51.530;5.974;2023-01-31T09:14:31;101760.09;;;10.23;78.11
57562;BME280;43397;51.530;5.974;2023-01-31T09:16:57;101757.41;;;10.18;77.71
57562;BME280;43397;51.530;5.974;2023-01-31T09:19:23;101760.25;;;10.40;77.58
57562;BME280;43397;51.530;5.974;2023-01-31T09:21:48;101754.97;;;10.44;77.88
57562;BME280;43397;51.530;5.974;2023-01-31T09:24:14;101756.13;;;10.89;76.59
57562;BME280;43397;51.530;5.974;2023-01-31T09:26:40;101756.09;;;10.83;76.00
57562;BME280;43397;51.530;5.974;2023-01-31T09:29:07;101746.22;;;10.61;76.98
57562;BME280;43397;51.530;5.974;2023-01-31T09:31:32;101751.75;;;11.01;75.16
57562;BME280;43397;51.530;5.974;2023-01-31T09:33:58;101756.16;;;10.99;75.42
57562;BME280;43397;51.530;5.974;2023-01-31T09:36:24;101745.44;;;10.76;76.13
57562;BME280;43397;51.530;5.974;2023-01-31T09:38:53;101722.63;;;11.48;74.64
57562;BME280;43397;51.530;5.974;2023-01-31T09:41:24;101727.66;;;10.73;76.29
57562;BME280;43397;51.530;5.974;2023-01-31T09:43:54;101715.41;;;11.00;74.99
57562;BME280;43397;51.530;5.974;2023-01-31T09:46:26;101701.31;;;11.35;74.85
57562;BME280;43397;51.530;5.974;2023-01-31T09:48:54;101717.31;;;11.59;74.76
57562;BME280;43397;51.530;5.974;2023-01-31T09:51:22;101731.56;;;11.95;73.26
57562;BME280;43397;51.530;5.974;2023-01-31T09:53:48;101735.94;;;11.62;74.94
57562;BME280;43397;51.530;5.974;2023-01-31T09:56:31;101731.47;;;11.44;75.60
57562;BME280;43397;51.530;5.974;2023-01-31T09:59:04;101736.91;;;11.98;74.27
57562;BME280;43397;51.530;5.974;2023-01-31T10:01:37;101725.28;;;11.39;74.18
57562;BME280;43397;51.530;5.974;2023-01-31T10:04:15;101728.81;;;11.44;74.89
57562;BME280;43397;51.530;5.974;2023-01-31T10:06:48;101733.19;;;11.13;76.24
57562;BME280;43397;51.530;5.974;2023-01-31T10:09:22;101725.28;;;11.45;74.70
57562;BME280;43397;51.530;5.974;2023-01-31T10:11:53;101723.47;;;11.30;74.89
57562;BME280;43397;51.530;5.974;2023-01-31T10:14:28;101720.00;;;11.76;74.62
57562;BME280;43397;51.530;5.974;2023-01-31T10:17:01;101711.97;;;11.51;75.12
57562;BME280;43397;51.530;5.974;2023-01-31T10:19:32;101714.66;;;11.68;75.88
57562;BME280;43397;51.530;5.974;2023-01-31T10:22:05;101699.47;;;11.21;75.47
57562;BME280;43397;51.530;5.974;2023-01-31T10:24:35;101720.91;;;11.83;74.97
57562;BME280;43397;51.530;5.974;2023-01-31T10:27:08;101681.81;;;11.62;76.31
57562;BME280;43397;51.530;5.974;2023-01-31T10:29:40;101702.22;;;11.61;74.94
57562;BME280;43397;51.530;5.974;2023-01-31T10:32:15;101701.41;;;12.02;74.08
57562;BME280;43397;51.530;5.974;2023-01-31T10:34:46;101714.66;;;11.59;75.93
57562;BME280;43397;51.530;5.974;2023-01-31T10:37:18;101727.13;;;11.85;75.21
57562;BME280;43397;51.530;5.974;2023-01-31T10:39:53;101732.44;;;12.17;73.99
57562;BME280;43397;51.530;5.974;2023-01-31T10:42:26;101741.34;;;12.31;73.94
57562;BME280;43397;51.530;5.974;2023-01-31T10:44:56;101728.88;;;11.77;74.61
57562;BME280;43397;51.530;5.974;2023-01-31T10:47:29;101723.47;;;11.43;74.93
57562;BME280;43397;51.530;5.974;2023-01-31T10:49:56;101729.63;;;11.19;76.22
57562;BME280;43397;51.530;5.974;2023-01-31T10:52:32;101731.50;;;11.50;76.62
57562;BME280;43397;51.530;5.974;2023-01-31T10:55:19;101713.78;;;11.83;75.12
57562;BME280;43397;51.530;5.974;2023-01-31T10:57:51;101713.75;;;11.42;76.22
57562;BME280;43397;51.530;5.974;2023-01-31T11:00:20;101720.00;;;11.81;75.56
57562;BME280;43397;51.530;5.974;2023-01-31T11:02:48;101708.41;;;11.28;76.72
57562;BME280;43397;51.530;5.974;2023-01-31T11:05:16;101697.78;;;11.52;76.48
57562;BME280;43397;51.530;5.974;2023-01-31T11:07:43;101690.63;;;11.24;78.10
57562;BME280;43397;51.530;5.974;2023-01-31T11:10:21;101688.81;;;11.07;77.04
57562;BME280;43397;51.530;5.974;2023-01-31T11:12:52;101709.34;;;11.73;75.53
57562;BME280;43397;51.530;5.974;2023-01-31T11:15:19;101709.38;;;11.94;75.47
57562;BME280;43397;51.530;5.974;2023-01-31T11:17:49;101701.38;;;12.07;74.48
57562;BME280;43397;51.530;5.974;2023-01-31T11:20:21;101690.69;;;11.70;75.30
57562;BME280;43397;51.530;5.974;2023-01-31T11:22:48;101685.41;;;11.91;75.56
57562;BME280;43397;51.530;5.974;2023-01-31T11:25:17;101683.66;;;11.89;74.65
57562;BME280;43397;51.530;5.974;2023-01-31T11:27:43;101677.41;;;12.01;73.91
57562;BME280;43397;51.530;5.974;2023-01-31T11:30:20;101683.59;;;12.10;74.37
57562;BME280;43397;51.530;5.974;2023-01-31T11:32:49;101676.50;;;12.14;74.44
57562;BME280;43397;51.530;5.974;2023-01-31T11:35:23;101661.34;;;12.39;73.79
57562;BME280;43397;51.530;5.974;2023-01-31T11:37:51;101665.84;;;11.91;75.94
57562;BME280;43397;51.530;5.974;2023-01-31T11:40:20;101671.19;;;11.99;74.97
57562;BME280;43397;51.530;5.974;2023-01-31T11:42:50;101649.88;;;11.91;74.45
57562;BME280;43397;51.530;5.974;2023-01-31T11:45:16;101648.00;;;12.34;74.80
57562;BME280;43397;51.530;5.974;2023-01-31T11:47:44;101661.34;;;12.36;74.38
57562;BME280;43397;51.530;5.974;2023-01-31T11:50:20;101664.09;;;12.07;76.49
57562;BME280;43397;51.530;5.974;2023-01-31T11:52:52;101659.56;;;12.43;74.82
57562;BME280;43397;51.530;5.974;2023-01-31T11:55:18;101660.44;;;12.45;75.08
57562;BME280;43397;51.530;5.974;2023-01-31T11:57:44;101670.28;;;12.10;76.25
57562;BME280;43397;51.530;5.974;2023-01-31T12:00:20;101661.34;;;12.42;75.60
57562;BME280;43397;51.530;5.974;2023-01-31T12:02:51;101651.47;;;12.72;73.64
57562;BME280;43397;51.530;5.974;2023-01-31T12:05:19;101650.75;;;12.13;76.02
57562;BME280;43397;51.530;5.974;2023-01-31T12:07:47;101650.59;;;12.61;74.75
57562;BME280;43397;51.530;5.974;2023-01-31T12:10:34;101640.97;;;12.18;76.66
57562;BME280;43397;51.530;5.974;2023-01-31T12:13:13;101647.88;;;12.77;75.00
57562;BME280;43397;51.530;5.974;2023-01-31T12:15:49;101631.13;;;12.42;75.26
57562;BME280;43397;51.530;5.974;2023-01-31T12:18:19;101644.34;;;12.66;74.57
57562;BME280;43397;51.530;5.974;2023-01-31T12:20:52;101639.97;;;12.51;75.44
57562;BME280;43397;51.530;5.974;2023-01-31T12:23:32;101627.50;;;12.58;75.52
57562;BME280;43397;51.530;5.974;2023-01-31T12:26:08;101626.69;;;12.36;75.07
57562;BME280;43397;51.530;5.974;2023-01-31T12:28:46;101617.81;;;12.42;76.20
57562;BME280;43397;51.530;5.974;2023-01-31T12:31:39;101621.22;;;12.74;76.27
57562;BME280;43397;51.530;5.974;2023-01-31T12:34:20;101625.78;;;12.42;76.59
57562;BME280;43397;51.530;5.974;2023-01-31T12:37:01;101625.72;;;12.60;77.41
57562;BME280;43397;51.530;5.974;2023-01-31T12:39:48;101623.88;;;12.73;76.46
57562;BME280;43397;51.530;5.974;2023-01-31T12:42:25;101629.34;;;12.42;78.10
57562;BME280;43397;51.530;5.974;2023-01-31T12:45:01;101616.00;;;12.48;77.49
57562;BME280;43397;51.530;5.974;2023-01-31T12:50:31;101622.03;;;12.84;77.88
57562;BME280;43397;51.530;5.974;2023-01-31T12:53:29;101621.25;;;12.70;78.82
57562;BME280;43397;51.530;5.974;2023-01-31T12:56:15;101638.19;;;12.57;80.91
57562;BME280;43397;51.530;5.974;2023-01-31T12:58:49;101628.50;;;12.25;83.33
57562;BME280;43397;51.530;5.974;2023-01-31T13:01:26;101628.50;;;12.19;83.95
57562;BME280;43397;51.530;5.974;2023-01-31T13:04:02;101640.84;;;12.61;82.43
57562;BME280;43397;51.530;5.974;2023-01-31T13:06:33;101631.06;;;12.54;83.36
57562;BME280;43397;51.530;5.974;2023-01-31T13:09:05;101635.44;;;12.75;82.97
57562;BME280;43397;51.530;5.974;2023-01-31T13:11:38;101629.22;;;12.67;83.97